sensor_id;sensor_type;location;lat;lon;timestamp;P1;durP1;ratioP1;P2;durP2;ratioP2
18659;SDS011;9459;50.254;19.014;2022-11-15T00:01:14;42.08;;;24.05;;
18659;SDS011;9459;50.254;19.014;2022-11-15T00:03:46;42.08;;;24.23;;
18659;SDS011;9459;50.254;19.014;2022-11-15T00:06:14;45.38;;;25.63;;
18659;SDS011;9459;50.254;19.014;2022-11-15T00:08:42;46.17;;;25.38;;
18659;SDS011;9459;50.254;19.014;2022-11-15T00:11:11;35.15;;;22.30;;
18659;SDS011;9459;50.254;19.014;2022-11-15T00:13:40;36.30;;;22.42;;
18659;SDS011;9459;50.254;19.014;2022-11-15T00:16:08;34.88;;;21.58;;
18659;SDS011;9459;50.254;19.014;2022-11-15T00:18:37;33.10;;;20.90;;
18659;SDS011;9459;50.254;19.014;2022-11-15T00:21:07;41.58;;;22.33;;
18659;SDS011;9459;50.254;19.014;2022-11-15T00:23:37;33.45;;;21.23;;
18659;SDS011;9459;50.254;19.014;2022-11-15T00:26:06;29.58;;;19.75;;
18659;SDS011;9459;50.254;19.014;2022-11-15T00:28:35;35.55;;;22.17;;
18659;SDS011;9459;50.254;19.014;2022-11-15T00:31:03;35.83;;;20.95;;
18659;SDS011;9459;50.254;19.014;2022-11-15T00:33:33;26.95;;;18.50;;
18659;SDS011;9459;50.254;19.014;2022-11-15T00:36:01;40.75;;;21.75;;
18659;SDS011;9459;50.254;19.014;2022-11-15T00:38:32;41.15;;;19.42;;
18659;SDS011;9459;50.254;19.014;2022-11-15T00:41:01;29.58;;;19.58;;
18659;SDS011;9459;50.254;19.014;2022-11-15T00:43:35;32.00;;;19.88;;
18659;SDS011;9459;50.254;19.014;2022-11-15T00:46:04;28.15;;;18.00;;
18659;SDS011;9459;50.254;19.014;2022-11-15T00:48:32;31.15;;;18.17;;
18659;SDS011;9459;50.254;19.014;2022-11-15T00:51:01;22.55;;;15.82;;
18659;SDS011;9459;50.254;19.014;2022-11-15T00:53:29;28.45;;;18.30;;
18659;SDS011;9459;50.254;19.014;2022-11-15T00:55:59;27.98;;;16.70;;
18659;SDS011;9459;50.254;19.014;2022-11-15T00:58:28;30.20;;;18.83;;
18659;SDS011;9459;50.254;19.014;2022-11-15T01:00:56;28.05;;;17.15;;
18659;SDS011;9459;50.254;19.014;2022-11-15T01:03:24;31.73;;;18.98;;
18659;SDS011;9459;50.254;19.014;2022-11-15T01:05:53;31.10;;;19.83;;
18659;SDS011;9459;50.254;19.014;2022-11-15T01:08:21;30.38;;;19.52;;
18659;SDS011;9459;50.254;19.014;2022-11-15T01:10:49;30.08;;;16.92;;
18659;SDS011;9459;50.254;19.014;2022-11-15T01:13:19;24.08;;;15.80;;
18659;SDS011;9459;50.254;19.014;2022-11-15T01:15:47;25.70;;;16.80;;
18659;SDS011;9459;50.254;19.014;2022-11-15T01:18:15;24.45;;;15.77;;
18659;SDS011;9459;50.254;19.014;2022-11-15T01:20:43;33.08;;;17.27;;
18659;SDS011;9459;50.254;19.014;2022-11-15T01:23:12;25.83;;;16.63;;
18659;SDS011;9459;50.254;19.014;2022-11-15T01:25:40;37.45;;;16.73;;
18659;SDS011;9459;50.254;19.014;2022-11-15T01:28:08;26.23;;;16.85;;
18659;SDS011;9459;50.254;19.014;2022-11-15T01:30:38;23.42;;;15.93;;
18659;SDS011;9459;50.254;19.014;2022-11-15T01:33:06;26.35;;;16.65;;
18659;SDS011;9459;50.254;19.014;2022-11-15T01:35:37;27.92;;;16.58;;
18659;SDS011;9459;50.254;19.014;2022-11-15T01:38:06;34.10;;;16.60;;
18659;SDS011;9459;50.254;19.014;2022-11-15T01:40:34;27.45;;;17.10;;
18659;SDS011;9459;50.254;19.014;2022-11-15T01:45:49;31.95;;;16.90;;
18659;SDS011;9459;50.254;19.014;2022-11-15T01:48:20;26.02;;;16.48;;
18659;SDS011;9459;50.254;19.014;2022-11-15T01:50:48;25.50;;;16.33;;
18659;SDS011;9459;50.254;19.014;2022-11-15T01:53:18;29.98;;;17.02;;
18659;SDS011;9459;50.254;19.014;2022-11-15T01:55:47;28.88;;;15.60;;
18659;SDS011;9459;50.254;19.014;2022-11-15T01:58:16;27.38;;;16.48;;
18659;SDS011;9459;50.254;19.014;2022-11-15T02:00:44;28.80;;;16.67;;
18659;SDS011;9459;50.254;19.014;2022-11-15T02:03:16;26.00;;;16.40;;
18659;SDS011;9459;50.254;19.014;2022-11-15T02:05:44;27.73;;;16.98;;
18659;SDS011;9459;50.254;19.014;2022-11-15T02:08:12;31.58;;;16.08;;
18659;SDS011;9459;50.254;19.014;2022-11-15T02:10:46;28.63;;;16.73;;
18659;SDS011;9459;50.254;19.014;2022-11-15T02:13:15;30.33;;;18.10;;
18659;SDS011;9459;50.254;19.014;2022-11-15T02:15:45;31.15;;;18.40;;
18659;SDS011;9459;50.254;19.014;2022-11-15T02:18:24;34.30;;;17.25;;
18659;SDS011;9459;50.254;19.014;2022-11-15T02:20:58;31.77;;;18.73;;
18659;SDS011;9459;50.254;19.014;2022-11-15T02:27:10;26.08;;;16.48;;
18659;SDS011;9459;50.254;19.014;2022-11-15T02:30:04;41.63;;;17.30;;
18659;SDS011;9459;50.254;19.014;2022-11-15T02:32:47;33.53;;;17.25;;
18659;SDS011;9459;50.254;19.014;2022-11-15T02:35:20;36.35;;;19.08;;
18659;SDS011;9459;50.254;19.014;2022-11-15T02:37:55;27.50;;;16.35;;
18659;SDS011;9459;50.254;19.014;2022-11-15T02:40:27;45.10;;;16.40;;
18659;SDS011;9459;50.254;19.014;2022-11-15T02:43:03;27.75;;;15.45;;
18659;SDS011;9459;50.254;19.014;2022-11-15T02:48:24;31.63;;;15.57;;
18659;SDS011;9459;50.254;19.014;2022-11-15T02:50:53;28.70;;;16.15;;
18659;SDS011;9459;50.254;19.014;2022-11-15T02:53:23;27.77;;;17.38;;
18659;SDS011;9459;50.254;19.014;2022-11-15T02:55:52;30.30;;;16.92;;
18659;SDS011;9459;50.254;19.014;2022-11-15T02:58:27;34.53;;;16.90;;
18659;SDS011;9459;50.254;19.014;2022-11-15T03:01:06;27.50;;;16.92;;
18659;SDS011;9459;50.254;19.014;2022-11-15T03:03:42;29.83;;;17.77;;
18659;SDS011;9459;50.254;19.014;2022-11-15T03:06:20;33.05;;;15.15;;
18659;SDS011;9459;50.254;19.014;2022-11-15T03:08:55;23.17;;;13.73;;
18659;SDS011;9459;50.254;19.014;2022-11-15T03:11:30;28.52;;;15.25;;
18659;SDS011;9459;50.254;19.014;2022-11-15T03:14:01;24.27;;;13.47;;
18659;SDS011;9459;50.254;19.014;2022-11-15T03:16:36;24.80;;;15.07;;
18659;SDS011;9459;50.254;19.014;2022-11-15T03:19:06;25.38;;;14.77;;
18659;SDS011;9459;50.254;19.014;2022-11-15T03:21:38;23.75;;;13.57;;
18659;SDS011;9459;50.254;19.014;2022-11-15T03:24:08;33.10;;;16.10;;
18659;SDS011;9459;50.254;19.014;2022-11-15T03:26:36;23.15;;;14.40;;
18659;SDS011;9459;50.254;19.014;2022-11-15T03:29:08;25.60;;;14.90;;
18659;SDS011;9459;50.254;19.014;2022-11-15T03:31:42;27.58;;;14.50;;
18659;SDS011;9459;50.254;19.014;2022-11-15T03:34:19;23.08;;;14.07;;
18659;SDS011;9459;50.254;19.014;2022-11-15T03:36:52;21.10;;;13.30;;
18659;SDS011;9459;50.254;19.014;2022-11-15T03:39:20;23.30;;;15.38;;
18659;SDS011;9459;50.254;19.014;2022-11-15T03:41:51;32.67;;;17.98;;
18659;SDS011;9459;50.254;19.014;2022-11-15T03:44:28;28.98;;;14.55;;
18659;SDS011;9459;50.254;19.014;2022-11-15T03:47:06;24.80;;;14.38;;
18659;SDS011;9459;50.254;19.014;2022-11-15T03:49:37;24.58;;;14.38;;
18659;SDS011;9459;50.254;19.014;2022-11-15T03:52:07;24.75;;;14.82;;
18659;SDS011;9459;50.254;19.014;2022-11-15T03:54:47;27.33;;;15.00;;
18659;SDS011;9459;50.254;19.014;2022-11-15T03:57:16;25.80;;;14.77;;
18659;SDS011;9459;50.254;19.014;2022-11-15T03:59:44;27.50;;;15.90;;
18659;SDS011;9459;50.254;19.014;2022-11-15T04:02:14;23.33;;;14.43;;
18659;SDS011;9459;50.254;19.014;2022-11-15T04:04:43;27.48;;;14.25;;
18659;SDS011;9459;50.254;19.014;2022-11-15T04:07:11;24.58;;;13.85;;
18659;SDS011;9459;50.254;19.014;2022-11-15T04:09:40;24.52;;;14.45;;
18659;SDS011;9459;50.254;19.014;2022-11-15T04:12:22;23.10;;;14.60;;
18659;SDS011;9459;50.254;19.014;2022-11-15T04:14:59;30.60;;;16.70;;
18659;SDS011;9459;50.254;19.014;2022-11-15T04:17:47;26.60;;;15.10;;
18659;SDS011;9459;50.254;19.014;2022-11-15T04:20:16;27.70;;;16.10;;
18659;SDS011;9459;50.254;19.014;2022-11-15T04:23:04;27.08;;;15.50;;
18659;SDS011;9459;50.254;19.014;2022-11-15T04:25:50;30.33;;;15.98;;
18659;SDS011;9459;50.254;19.014;2022-11-15T04:28:20;28.25;;;16.15;;
18659;SDS011;9459;50.254;19.014;2022-11-15T04:30:48;26.67;;;16.02;;
18659;SDS011;9459;50.254;19.014;2022-11-15T04:33:18;28.52;;;16.35;;
18659;SDS011;9459;50.254;19.014;2022-11-15T04:35:46;25.85;;;16.02;;
18659;SDS011;9459;50.254;19.014;2022-11-15T04:38:35;24.42;;;15.23;;
18659;SDS011;9459;50.254;19.014;2022-11-15T04:41:04;23.73;;;15.75;;
18659;SDS011;9459;50.254;19.014;2022-11-15T04:43:32;23.85;;;15.15;;
18659;SDS011;9459;50.254;19.014;2022-11-15T04:46:00;22.50;;;14.20;;
18659;SDS011;9459;50.254;19.014;2022-11-15T04:48:30;26.17;;;16.40;;
18659;SDS011;9459;50.254;19.014;2022-11-15T04:50:58;24.95;;;15.63;;
18659;SDS011;9459;50.254;19.014;2022-11-15T04:53:27;23.33;;;15.10;;
18659;SDS011;9459;50.254;19.014;2022-11-15T04:55:56;29.20;;;16.65;;
18659;SDS011;9459;50.254;19.014;2022-11-15T04:58:24;27.00;;;17.23;;
18659;SDS011;9459;50.254;19.014;2022-11-15T05:00:52;28.92;;;17.60;;
18659;SDS011;9459;50.254;19.014;2022-11-15T05:03:21;30.58;;;17.83;;
18659;SDS011;9459;50.254;19.014;2022-11-15T05:06:08;33.45;;;17.92;;
18659;SDS011;9459;50.254;19.014;2022-11-15T05:08:36;34.92;;;19.15;;
18659;SDS011;9459;50.254;19.014;2022-11-15T05:11:05;33.97;;;18.83;;
18659;SDS011;9459;50.254;19.014;2022-11-15T05:13:33;25.60;;;16.48;;
18659;SDS011;9459;50.254;19.014;2022-11-15T05:16:01;26.73;;;16.92;;
18659;SDS011;9459;50.254;19.014;2022-11-15T05:18:30;28.08;;;16.88;;
18659;SDS011;9459;50.254;19.014;2022-11-15T05:21:02;34.78;;;17.65;;
18659;SDS011;9459;50.254;19.014;2022-11-15T05:23:32;31.65;;;16.90;;
18659;SDS011;9459;50.254;19.014;2022-11-15T05:26:01;27.33;;;17.23;;
18659;SDS011;9459;50.254;19.014;2022-11-15T05:28:35;29.55;;;17.40;;
18659;SDS011;9459;50.254;19.014;2022-11-15T05:31:04;28.15;;;16.90;;
18659;SDS011;9459;50.254;19.014;2022-11-15T05:33:33;33.58;;;17.77;;
18659;SDS011;9459;50.254;19.014;2022-11-15T05:36:02;29.58;;;17.60;;
18659;SDS011;9459;50.254;19.014;2022-11-15T05:38:34;30.77;;;17.33;;
18659;SDS011;9459;50.254;19.014;2022-11-15T05:41:03;31.83;;;17.67;;
18659;SDS011;9459;50.254;19.014;2022-11-15T05:43:32;29.98;;;18.08;;
18659;SDS011;9459;50.254;19.014;2022-11-15T05:46:03;31.00;;;17.33;;
18659;SDS011;9459;50.254;19.014;2022-11-15T05:48:33;25.77;;;16.20;;
18659;SDS011;9459;50.254;19.014;2022-11-15T05:51:02;28.77;;;16.95;;
18659;SDS011;9459;50.254;19.014;2022-11-15T05:53:30;28.20;;;17.98;;
18659;SDS011;9459;50.254;19.014;2022-11-15T05:56:01;31.05;;;17.77;;
18659;SDS011;9459;50.254;19.014;2022-11-15T05:58:30;32.95;;;18.92;;
18659;SDS011;9459;50.254;19.014;2022-11-15T06:00:58;29.98;;;17.95;;
18659;SDS011;9459;50.254;19.014;2022-11-15T06:03:27;35.42;;;19.80;;
18659;SDS011;9459;50.254;19.014;2022-11-15T06:05:56;31.50;;;18.05;;
18659;SDS011;9459;50.254;19.014;2022-11-15T06:08:25;37.63;;;21.80;;
18659;SDS011;9459;50.254;19.014;2022-11-15T06:10:53;43.25;;;21.35;;
18659;SDS011;9459;50.254;19.014;2022-11-15T06:13:23;55.80;;;29.23;;
18659;SDS011;9459;50.254;19.014;2022-11-15T06:15:52;48.08;;;25.75;;
18659;SDS011;9459;50.254;19.014;2022-11-15T06:18:23;42.72;;;22.15;;
18659;SDS011;9459;50.254;19.014;2022-11-15T06:20:51;40.35;;;20.40;;
18659;SDS011;9459;50.254;19.014;2022-11-15T06:23:19;40.85;;;22.98;;
18659;SDS011;9459;50.254;19.014;2022-11-15T06:25:48;41.97;;;23.48;;
18659;SDS011;9459;50.254;19.014;2022-11-15T06:28:16;46.20;;;23.40;;
18659;SDS011;9459;50.254;19.014;2022-11-15T06:30:46;43.67;;;22.30;;
18659;SDS011;9459;50.254;19.014;2022-11-15T06:33:19;38.70;;;19.73;;
18659;SDS011;9459;50.254;19.014;2022-11-15T06:35:47;37.15;;;20.00;;
18659;SDS011;9459;50.254;19.014;2022-11-15T06:38:15;41.30;;;23.55;;
18659;SDS011;9459;50.254;19.014;2022-11-15T06:40:43;38.88;;;22.15;;
18659;SDS011;9459;50.254;19.014;2022-11-15T06:43:12;42.13;;;22.40;;
18659;SDS011;9459;50.254;19.014;2022-11-15T06:45:41;40.60;;;22.15;;
18659;SDS011;9459;50.254;19.014;2022-11-15T06:48:10;51.10;;;27.77;;
18659;SDS011;9459;50.254;19.014;2022-11-15T06:50:39;50.97;;;30.80;;
18659;SDS011;9459;50.254;19.014;2022-11-15T06:53:07;61.70;;;37.40;;
18659;SDS011;9459;50.254;19.014;2022-11-15T06:55:35;55.90;;;31.75;;
18659;SDS011;9459;50.254;19.014;2022-11-15T06:58:05;54.22;;;29.30;;
18659;SDS011;9459;50.254;19.014;2022-11-15T07:00:33;54.75;;;29.88;;
18659;SDS011;9459;50.254;19.014;2022-11-15T07:03:02;57.42;;;31.90;;
18659;SDS011;9459;50.254;19.014;2022-11-15T07:05:31;54.13;;;29.65;;
18659;SDS011;9459;50.254;19.014;2022-11-15T07:08:00;53.40;;;29.73;;
18659;SDS011;9459;50.254;19.014;2022-11-15T07:10:28;54.38;;;29.13;;
18659;SDS011;9459;50.254;19.014;2022-11-15T07:12:56;53.95;;;27.63;;
18659;SDS011;9459;50.254;19.014;2022-11-15T07:15:25;50.38;;;27.45;;
18659;SDS011;9459;50.254;19.014;2022-11-15T07:17:53;53.30;;;25.52;;
18659;SDS011;9459;50.254;19.014;2022-11-15T07:20:22;47.08;;;26.25;;
18659;SDS011;9459;50.254;19.014;2022-11-15T07:22:55;45.60;;;25.10;;
18659;SDS011;9459;50.254;19.014;2022-11-15T07:25:27;47.40;;;25.88;;
18659;SDS011;9459;50.254;19.014;2022-11-15T07:27:55;47.15;;;25.70;;
18659;SDS011;9459;50.254;19.014;2022-11-15T07:30:24;47.10;;;26.67;;
18659;SDS011;9459;50.254;19.014;2022-11-15T07:32:53;46.67;;;26.70;;
18659;SDS011;9459;50.254;19.014;2022-11-15T07:35:22;51.90;;;29.02;;
18659;SDS011;9459;50.254;19.014;2022-11-15T07:37:55;48.45;;;26.98;;
18659;SDS011;9459;50.254;19.014;2022-11-15T07:40:24;43.22;;;24.50;;
18659;SDS011;9459;50.254;19.014;2022-11-15T07:42:58;47.78;;;31.80;;
18659;SDS011;9459;50.254;19.014;2022-11-15T07:45:27;41.63;;;25.13;;
18659;SDS011;9459;50.254;19.014;2022-11-15T07:47:55;40.85;;;23.70;;
18659;SDS011;9459;50.254;19.014;2022-11-15T07:50:23;41.88;;;25.40;;
18659;SDS011;9459;50.254;19.014;2022-11-15T07:52:57;38.60;;;23.70;;
18659;SDS011;9459;50.254;19.014;2022-11-15T07:55:26;36.55;;;23.02;;
18659;SDS011;9459;50.254;19.014;2022-11-15T07:58:00;32.38;;;21.05;;
18659;SDS011;9459;50.254;19.014;2022-11-15T08:00:29;30.75;;;21.63;;
18659;SDS011;9459;50.254;19.014;2022-11-15T08:03:01;31.65;;;21.65;;
18659;SDS011;9459;50.254;19.014;2022-11-15T08:05:30;30.55;;;20.52;;
18659;SDS011;9459;50.254;19.014;2022-11-15T08:08:00;28.20;;;20.73;;
18659;SDS011;9459;50.254;19.014;2022-11-15T08:10:28;30.67;;;22.27;;
18659;SDS011;9459;50.254;19.014;2022-11-15T08:13:04;26.52;;;20.13;;
18659;SDS011;9459;50.254;19.014;2022-11-15T08:15:33;32.65;;;21.80;;
18659;SDS011;9459;50.254;19.014;2022-11-15T08:18:03;29.85;;;21.08;;
18659;SDS011;9459;50.254;19.014;2022-11-15T08:20:32;26.30;;;19.23;;
18659;SDS011;9459;50.254;19.014;2022-11-15T08:23:02;28.70;;;19.73;;
18659;SDS011;9459;50.254;19.014;2022-11-15T08:25:32;27.00;;;20.40;;
18659;SDS011;9459;50.254;19.014;2022-11-15T08:28:02;26.95;;;20.98;;
18659;SDS011;9459;50.254;19.014;2022-11-15T08:30:33;32.10;;;22.35;;
18659;SDS011;9459;50.254;19.014;2022-11-15T08:33:03;29.75;;;20.95;;
18659;SDS011;9459;50.254;19.014;2022-11-15T08:35:31;31.15;;;22.85;;
18659;SDS011;9459;50.254;19.014;2022-11-15T08:38:00;31.77;;;22.50;;
18659;SDS011;9459;50.254;19.014;2022-11-15T08:40:29;30.05;;;21.05;;
18659;SDS011;9459;50.254;19.014;2022-11-15T08:42:58;27.73;;;21.17;;
18659;SDS011;9459;50.254;19.014;2022-11-15T08:45:29;25.98;;;19.75;;
18659;SDS011;9459;50.254;19.014;2022-11-15T08:47:57;25.35;;;19.88;;
18659;SDS011;9459;50.254;19.014;2022-11-15T08:50:28;26.33;;;19.38;;
18659;SDS011;9459;50.254;19.014;2022-11-15T08:52:57;24.35;;;19.05;;
18659;SDS011;9459;50.254;19.014;2022-11-15T08:55:26;25.52;;;18.95;;
18659;SDS011;9459;50.254;19.014;2022-11-15T08:57:56;28.75;;;21.23;;
18659;SDS011;9459;50.254;19.014;2022-11-15T09:00:24;27.65;;;19.85;;
18659;SDS011;9459;50.254;19.014;2022-11-15T09:02:53;28.38;;;20.70;;
18659;SDS011;9459;50.254;19.014;2022-11-15T09:05:21;29.23;;;20.30;;
18659;SDS011;9459;50.254;19.014;2022-11-15T09:07:52;26.92;;;21.83;;
18659;SDS011;9459;50.254;19.014;2022-11-15T09:10:20;23.13;;;18.00;;
18659;SDS011;9459;50.254;19.014;2022-11-15T09:12:50;24.70;;;19.05;;
18659;SDS011;9459;50.254;19.014;2022-11-15T09:15:18;32.38;;;24.25;;
18659;SDS011;9459;50.254;19.014;2022-11-15T09:17:47;29.70;;;21.58;;
18659;SDS011;9459;50.254;19.014;2022-11-15T09:20:15;21.88;;;17.23;;
18659;SDS011;9459;50.254;19.014;2022-11-15T09:22:44;21.23;;;17.02;;
18659;SDS011;9459;50.254;19.014;2022-11-15T09:25:12;28.88;;;20.88;;
18659;SDS011;9459;50.254;19.014;2022-11-15T09:27:41;26.27;;;20.55;;
18659;SDS011;9459;50.254;19.014;2022-11-15T09:30:11;21.13;;;17.38;;
18659;SDS011;9459;50.254;19.014;2022-11-15T09:32:40;24.77;;;19.08;;
18659;SDS011;9459;50.254;19.014;2022-11-15T09:35:08;20.67;;;16.45;;
18659;SDS011;9459;50.254;19.014;2022-11-15T09:37:37;22.73;;;16.85;;
18659;SDS011;9459;50.254;19.014;2022-11-15T09:40:06;20.58;;;14.60;;
18659;SDS011;9459;50.254;19.014;2022-11-15T09:42:41;26.17;;;19.77;;
18659;SDS011;9459;50.254;19.014;2022-11-15T09:45:18;16.95;;;14.85;;
18659;SDS011;9459;50.254;19.014;2022-11-15T09:47:52;21.98;;;16.73;;
18659;SDS011;9459;50.254;19.014;2022-11-15T09:50:31;22.92;;;18.83;;
18659;SDS011;9459;50.254;19.014;2022-11-15T09:53:02;42.42;;;31.33;;
18659;SDS011;9459;50.254;19.014;2022-11-15T09:55:32;31.67;;;25.77;;
18659;SDS011;9459;50.254;19.014;2022-11-15T09:58:07;26.13;;;20.65;;
18659;SDS011;9459;50.254;19.014;2022-11-15T10:00:44;25.42;;;20.13;;
18659;SDS011;9459;50.254;19.014;2022-11-15T10:03:16;28.77;;;20.85;;
18659;SDS011;9459;50.254;19.014;2022-11-15T10:05:46;24.45;;;18.63;;
18659;SDS011;9459;50.254;19.014;2022-11-15T10:10:49;16.42;;;13.48;;
18659;SDS011;9459;50.254;19.014;2022-11-15T10:16:12;17.33;;;12.90;;
18659;SDS011;9459;50.254;19.014;2022-11-15T10:18:54;15.85;;;12.55;;
18659;SDS011;9459;50.254;19.014;2022-11-15T10:21:29;17.52;;;13.88;;
18659;SDS011;9459;50.254;19.014;2022-11-15T10:24:05;17.25;;;13.38;;
18659;SDS011;9459;50.254;19.014;2022-11-15T10:26:38;17.58;;;14.75;;
18659;SDS011;9459;50.254;19.014;2022-11-15T10:29:07;18.00;;;14.63;;
18659;SDS011;9459;50.254;19.014;2022-11-15T10:31:38;17.27;;;15.45;;
18659;SDS011;9459;50.254;19.014;2022-11-15T10:34:10;17.45;;;15.13;;
18659;SDS011;9459;50.254;19.014;2022-11-15T10:36:43;18.05;;;15.40;;
18659;SDS011;9459;50.254;19.014;2022-11-15T10:39:16;20.98;;;17.05;;
18659;SDS011;9459;50.254;19.014;2022-11-15T10:41:44;20.70;;;17.83;;
18659;SDS011;9459;50.254;19.014;2022-11-15T10:44:23;20.88;;;17.75;;
18659;SDS011;9459;50.254;19.014;2022-11-15T10:47:06;24.02;;;19.08;;
18659;SDS011;9459;50.254;19.014;2022-11-15T10:49:53;22.25;;;17.80;;
18659;SDS011;9459;50.254;19.014;2022-11-15T10:52:26;23.35;;;18.08;;
18659;SDS011;9459;50.254;19.014;2022-11-15T10:54:56;18.77;;;16.77;;
18659;SDS011;9459;50.254;19.014;2022-11-15T10:57:26;22.38;;;18.08;;
18659;SDS011;9459;50.254;19.014;2022-11-15T10:59:56;22.88;;;18.75;;
18659;SDS011;9459;50.254;19.014;2022-11-15T11:04:57;20.23;;;17.42;;
18659;SDS011;9459;50.254;19.014;2022-11-15T11:07:26;18.83;;;16.73;;
18659;SDS011;9459;50.254;19.014;2022-11-15T11:09:56;18.00;;;15.57;;
18659;SDS011;9459;50.254;19.014;2022-11-15T11:12:29;23.70;;;17.15;;
18659;SDS011;9459;50.254;19.014;2022-11-15T11:14:59;23.00;;;18.27;;
18659;SDS011;9459;50.254;19.014;2022-11-15T11:17:35;21.58;;;17.70;;
18659;SDS011;9459;50.254;19.014;2022-11-15T11:20:10;20.38;;;16.80;;
18659;SDS011;9459;50.254;19.014;2022-11-15T11:22:49;20.92;;;16.80;;
18659;SDS011;9459;50.254;19.014;2022-11-15T11:25:28;20.27;;;16.42;;
18659;SDS011;9459;50.254;19.014;2022-11-15T11:30:54;22.73;;;17.42;;
18659;SDS011;9459;50.254;19.014;2022-11-15T11:33:31;23.33;;;16.63;;
18659;SDS011;9459;50.254;19.014;2022-11-15T11:36:04;21.70;;;16.65;;
18659;SDS011;9459;50.254;19.014;2022-11-15T11:38:40;23.02;;;16.88;;
18659;SDS011;9459;50.254;19.014;2022-11-15T11:41:17;22.00;;;16.42;;
18659;SDS011;9459;50.254;19.014;2022-11-15T11:43:54;25.83;;;17.95;;
18659;SDS011;9459;50.254;19.014;2022-11-15T11:46:41;22.70;;;17.52;;
18659;SDS011;9459;50.254;19.014;2022-11-15T11:49:18;26.58;;;18.65;;
18659;SDS011;9459;50.254;19.014;2022-11-15T11:51:51;27.92;;;19.60;;
18659;SDS011;9459;50.254;19.014;2022-11-15T11:54:24;25.35;;;18.98;;
18659;SDS011;9459;50.254;19.014;2022-11-15T11:56:54;25.17;;;18.55;;
18659;SDS011;9459;50.254;19.014;2022-11-15T11:59:27;26.63;;;19.30;;
18659;SDS011;9459;50.254;19.014;2022-11-15T12:02:01;27.58;;;19.80;;
18659;SDS011;9459;50.254;19.014;2022-11-15T12:04:32;27.45;;;19.52;;
18659;SDS011;9459;50.254;19.014;2022-11-15T12:07:08;26.08;;;20.20;;
18659;SDS011;9459;50.254;19.014;2022-11-15T12:09:39;26.80;;;19.35;;
18659;SDS011;9459;50.254;19.014;2022-11-15T12:12:11;27.63;;;18.88;;
18659;SDS011;9459;50.254;19.014;2022-11-15T12:14:44;27.10;;;18.85;;
18659;SDS011;9459;50.254;19.014;2022-11-15T12:17:15;26.98;;;18.95;;
18659;SDS011;9459;50.254;19.014;2022-11-15T12:19:46;24.77;;;18.80;;
18659;SDS011;9459;50.254;19.014;2022-11-15T12:22:16;26.80;;;19.13;;
18659;SDS011;9459;50.254;19.014;2022-11-15T12:24:48;30.20;;;20.23;;
18659;SDS011;9459;50.254;19.014;2022-11-15T12:27:24;28.10;;;19.92;;
18659;SDS011;9459;50.254;19.014;2022-11-15T12:29:58;26.60;;;19.23;;
18659;SDS011;9459;50.254;19.014;2022-11-15T12:32:28;27.63;;;20.17;;
18659;SDS011;9459;50.254;19.014;2022-11-15T12:35:00;28.52;;;21.85;;
18659;SDS011;9459;50.254;19.014;2022-11-15T12:46:10;30.92;;;19.98;;
18659;SDS011;9459;50.254;19.014;2022-11-15T12:48:45;29.67;;;20.45;;
18659;SDS011;9459;50.254;19.014;2022-11-15T12:51:18;27.67;;;19.50;;
18659;SDS011;9459;50.254;19.014;2022-11-15T12:53:48;25.33;;;18.20;;
18659;SDS011;9459;50.254;19.014;2022-11-15T12:56:23;27.63;;;19.63;;
18659;SDS011;9459;50.254;19.014;2022-11-15T12:58:53;30.65;;;21.48;;
18659;SDS011;9459;50.254;19.014;2022-11-15T13:04:27;30.35;;;20.60;;
18659;SDS011;9459;50.254;19.014;2022-11-15T13:06:58;32.22;;;21.80;;
18659;SDS011;9459;50.254;19.014;2022-11-15T13:15:36;32.72;;;24.00;;
18659;SDS011;9459;50.254;19.014;2022-11-15T13:21:01;40.38;;;25.80;;
18659;SDS011;9459;50.254;19.014;2022-11-15T13:23:54;32.00;;;23.13;;
18659;SDS011;9459;50.254;19.014;2022-11-15T13:26:23;32.67;;;23.45;;
18659;SDS011;9459;50.254;19.014;2022-11-15T13:28:52;34.80;;;23.67;;
18659;SDS011;9459;50.254;19.014;2022-11-15T13:31:26;34.95;;;23.42;;
18659;SDS011;9459;50.254;19.014;2022-11-15T13:33:57;33.03;;;22.50;;
18659;SDS011;9459;50.254;19.014;2022-11-15T13:36:29;30.42;;;21.33;;
18659;SDS011;9459;50.254;19.014;2022-11-15T13:39:02;30.90;;;22.85;;
18659;SDS011;9459;50.254;19.014;2022-11-15T13:41:31;34.10;;;22.60;;
18659;SDS011;9459;50.254;19.014;2022-11-15T13:44:01;34.13;;;22.80;;
18659;SDS011;9459;50.254;19.014;2022-11-15T13:46:31;35.47;;;23.17;;
18659;SDS011;9459;50.254;19.014;2022-11-15T13:49:00;42.50;;;27.00;;
18659;SDS011;9459;50.254;19.014;2022-11-15T13:51:32;35.80;;;26.27;;
18659;SDS011;9459;50.254;19.014;2022-11-15T13:54:07;44.17;;;28.45;;
18659;SDS011;9459;50.254;19.014;2022-11-15T13:56:41;43.38;;;30.80;;
18659;SDS011;9459;50.254;19.014;2022-11-15T13:59:13;45.55;;;32.42;;
18659;SDS011;9459;50.254;19.014;2022-11-15T14:01:43;47.55;;;32.38;;
18659;SDS011;9459;50.254;19.014;2022-11-15T14:04:12;45.38;;;30.25;;
18659;SDS011;9459;50.254;19.014;2022-11-15T14:06:45;41.30;;;29.08;;
18659;SDS011;9459;50.254;19.014;2022-11-15T14:09:29;42.25;;;28.65;;
18659;SDS011;9459;50.254;19.014;2022-11-15T14:12:03;39.03;;;27.75;;
18659;SDS011;9459;50.254;19.014;2022-11-15T14:14:50;58.70;;;38.35;;
18659;SDS011;9459;50.254;19.014;2022-11-15T14:17:19;54.22;;;36.78;;
18659;SDS011;9459;50.254;19.014;2022-11-15T14:22:20;73.30;;;44.53;;
18659;SDS011;9459;50.254;19.014;2022-11-15T14:27:43;55.55;;;36.35;;
18659;SDS011;9459;50.254;19.014;2022-11-15T14:30:13;49.10;;;33.45;;
18659;SDS011;9459;50.254;19.014;2022-11-15T14:32:43;51.08;;;34.20;;
18659;SDS011;9459;50.254;19.014;2022-11-15T14:35:13;53.35;;;34.28;;
18659;SDS011;9459;50.254;19.014;2022-11-15T14:37:43;55.42;;;35.85;;
18659;SDS011;9459;50.254;19.014;2022-11-15T14:40:12;53.22;;;34.83;;
18659;SDS011;9459;50.254;19.014;2022-11-15T14:42:44;49.53;;;33.90;;
18659;SDS011;9459;50.254;19.014;2022-11-15T14:45:14;51.50;;;35.97;;
18659;SDS011;9459;50.254;19.014;2022-11-15T14:47:43;49.83;;;34.43;;
18659;SDS011;9459;50.254;19.014;2022-11-15T14:50:12;52.80;;;34.05;;
18659;SDS011;9459;50.254;19.014;2022-11-15T14:52:41;51.75;;;35.50;;
18659;SDS011;9459;50.254;19.014;2022-11-15T14:55:12;49.22;;;34.35;;
18659;SDS011;9459;50.254;19.014;2022-11-15T14:57:45;49.60;;;34.00;;
18659;SDS011;9459;50.254;19.014;2022-11-15T15:00:13;51.30;;;35.42;;
18659;SDS011;9459;50.254;19.014;2022-11-15T15:02:43;56.70;;;35.95;;
18659;SDS011;9459;50.254;19.014;2022-11-15T15:05:13;50.33;;;33.47;;
18659;SDS011;9459;50.254;19.014;2022-11-15T15:07:43;50.42;;;34.03;;
18659;SDS011;9459;50.254;19.014;2022-11-15T15:10:12;62.72;;;45.97;;
18659;SDS011;9459;50.254;19.014;2022-11-15T15:13:02;58.00;;;38.50;;
18659;SDS011;9459;50.254;19.014;2022-11-15T15:15:31;55.38;;;35.35;;
18659;SDS011;9459;50.254;19.014;2022-11-15T15:18:02;55.30;;;36.42;;
18659;SDS011;9459;50.254;19.014;2022-11-15T15:20:31;54.83;;;37.47;;
18659;SDS011;9459;50.254;19.014;2022-11-15T15:22:59;78.80;;;52.72;;
18659;SDS011;9459;50.254;19.014;2022-11-15T15:25:28;71.55;;;44.45;;
18659;SDS011;9459;50.254;19.014;2022-11-15T15:27:57;67.82;;;46.65;;
18659;SDS011;9459;50.254;19.014;2022-11-15T15:30:27;57.00;;;37.45;;